createdAt,value
2023-08-16T00:01:00.481Z,23.02
2023-08-16T00:11:04.041Z,23.08
2023-08-16T00:21:07.050Z,22.94
2023-08-16T00:31:10.032Z,22.73
2023-08-16T00:41:14.317Z,22.62
2023-08-16T00:51:17.740Z,22.55
2023-08-16T01:01:21.125Z,22.37
2023-08-16T01:11:30.434Z,22.08
2023-08-16T01:21:38.446Z,21.79
2023-08-16T01:31:41.840Z,21.63
2023-08-16T01:41:53.519Z,21.51
2023-08-16T01:51:56.963Z,21.41
2023-08-16T02:02:01.101Z,21.23
2023-08-16T02:12:04.568Z,21.15
2023-08-16T02:22:08.032Z,21.05
2023-08-16T02:32:11.010Z,20.91
2023-08-16T02:42:14.009Z,20.85
2023-08-16T02:52:18.577Z,20.82
2023-08-16T03:02:21.715Z,20.74
2023-08-16T03:12:24.751Z,20.64
2023-08-16T03:22:27.681Z,20.53
2023-08-16T03:32:30.701Z,20.66
2023-08-16T03:42:33.837Z,20.75
2023-08-16T03:52:36.907Z,20.80
2023-08-16T04:02:40.186Z,20.80
2023-08-16T04:12:43.367Z,20.82
2023-08-16T04:22:46.331Z,20.86
2023-08-16T04:32:49.337Z,20.93
2023-08-16T04:42:52.509Z,21.07
2023-08-16T04:52:55.693Z,21.31
2023-08-16T05:03:01.926Z,21.71
2023-08-16T05:13:07.162Z,21.77
2023-08-16T05:23:10.181Z,21.97
2023-08-16T05:33:13.291Z,22.33
2023-08-16T05:43:16.301Z,22.72
2023-08-16T05:53:19.335Z,23.12
2023-08-16T06:03:22.607Z,23.55
2023-08-16T06:13:26.183Z,23.99
2023-08-16T06:23:29.224Z,24.38
2023-08-16T06:33:33.163Z,24.65
2023-08-16T06:43:36.264Z,24.88
2023-08-16T06:53:41.177Z,25.26
2023-08-16T07:03:44.284Z,25.47
2023-08-16T07:13:48.003Z,25.66
2023-08-16T07:23:51.546Z,25.88
2023-08-16T07:33:54.584Z,26.18
2023-08-16T07:43:59.964Z,26.59
2023-08-16T07:54:03.779Z,26.97
2023-08-16T08:04:07.070Z,27.74
2023-08-16T08:14:11.533Z,28.52
2023-08-16T08:24:13.627Z,28.76
2023-08-16T08:34:16.964Z,29.25
2023-08-16T08:44:22.441Z,29.49
2023-08-16T08:54:25.595Z,29.89
2023-08-16T09:04:30.685Z,30.58
2023-08-16T09:14:33.703Z,31.05
2023-08-16T09:24:36.693Z,31.23
2023-08-16T09:34:52.776Z,31.67
2023-08-16T09:44:59.164Z,31.84
2023-08-16T09:55:02.251Z,32.22
2023-08-16T10:05:07.134Z,32.76
2023-08-16T10:15:11.365Z,33.64
2023-08-16T10:25:17.758Z,34.71
2023-08-16T10:35:21.920Z,35.74
2023-08-16T10:55:35.615Z,36.32
2023-08-16T11:05:39.102Z,37.17
2023-08-16T11:15:42.995Z,37.53
2023-08-16T11:25:46.053Z,37.43
2023-08-16T11:35:49.498Z,37.12
2023-08-16T11:45:53.399Z,37.49
2023-08-16T11:56:00.782Z,38.08
2023-08-16T12:06:07.113Z,37.89
2023-08-16T12:16:10.111Z,38.27
2023-08-16T12:26:14.671Z,38.70
2023-08-16T12:36:17.723Z,38.42
2023-08-16T12:46:20.800Z,38.97
2023-08-16T12:56:23.967Z,40.09
2023-08-16T13:06:31.938Z,40.71
2023-08-16T13:16:44.991Z,41.15
2023-08-16T13:36:57.491Z,41.98
2023-08-16T13:47:01.500Z,42.60
2023-08-16T13:57:04.906Z,42.60
2023-08-16T14:07:07.981Z,42.70
2023-08-16T14:17:11.025Z,42.42
2023-08-16T14:27:13.980Z,41.24
2023-08-16T14:37:16.969Z,39.89
2023-08-16T14:47:19.937Z,39.65
2023-08-16T14:57:22.923Z,40.22
2023-08-16T15:07:26.633Z,39.89
2023-08-16T15:17:29.839Z,38.78
2023-08-16T15:27:32.965Z,38.64
2023-08-16T15:37:36.012Z,37.54
2023-08-16T15:47:39.425Z,35.97
2023-08-16T15:57:42.449Z,35.47
2023-08-16T16:07:45.422Z,36.32
2023-08-16T16:17:48.424Z,36.81
2023-08-16T16:27:51.756Z,36.44
2023-08-16T16:37:54.821Z,35.45
2023-08-16T16:47:57.824Z,34.58
2023-08-16T16:58:01.296Z,33.79
2023-08-16T17:08:05.200Z,33.14
2023-08-16T17:18:08.399Z,32.48
2023-08-16T17:28:12.249Z,31.94
2023-08-16T17:38:14.378Z,31.66
2023-08-16T17:48:17.432Z,31.38
2023-08-16T17:58:21.654Z,31.11
2023-08-16T18:08:23.775Z,30.74
2023-08-16T18:18:26.728Z,30.37
2023-08-16T18:28:29.704Z,30.10
2023-08-16T18:38:32.798Z,29.86
2023-08-16T18:48:35.780Z,29.69
2023-08-16T18:58:38.754Z,29.37
2023-08-16T19:08:43.134Z,29.06
2023-08-16T19:18:48.666Z,28.95
2023-08-16T19:28:51.819Z,28.76
2023-08-16T19:38:54.769Z,28.57
2023-08-16T19:48:57.772Z,28.34
2023-08-16T19:59:00.839Z,28.18
2023-08-16T20:09:04.276Z,27.96
2023-08-16T20:19:08.523Z,27.79
2023-08-16T20:29:11.491Z,27.66
2023-08-16T20:39:14.616Z,27.49
2023-08-16T20:49:17.640Z,27.46
2023-08-16T20:59:21.527Z,27.47
2023-08-16T21:09:25.073Z,27.47
2023-08-16T21:19:28.147Z,27.43
2023-08-16T21:29:33.428Z,27.08
2023-08-16T21:39:36.423Z,26.13
2023-08-16T21:49:39.372Z,25.09
2023-08-16T21:59:42.384Z,24.69
2023-08-16T22:09:45.425Z,24.22
2023-08-16T22:19:48.431Z,23.74
2023-08-16T22:29:51.478Z,23.52
2023-08-16T22:39:54.521Z,23.37
2023-08-16T22:49:57.763Z,23.21
2023-08-16T23:00:00.736Z,23.07
2023-08-16T23:10:05.000Z,22.86
2023-08-16T23:20:10.046Z,22.69
2023-08-16T23:30:14.323Z,22.60
2023-08-16T23:40:17.762Z,22.59
2023-08-16T23:50:20.748Z,22.57
